sensor_id;sensor_type;location;lat;lon;timestamp;P1;durP1;ratioP1;P2;durP2;ratioP2
11092;SDS011;5600;50.864;6.102;2023-09-30T00:00:27;60.67;;;6.93;;
11092;SDS011;5600;50.864;6.102;2023-09-30T00:03:27;41.90;;;6.53;;
11092;SDS011;5600;50.864;6.102;2023-09-30T00:06:28;56.93;;;6.43;;
11092;SDS011;5600;50.864;6.102;2023-09-30T00:09:29;67.23;;;7.30;;
11092;SDS011;5600;50.864;6.102;2023-09-30T00:12:30;79.80;;;7.40;;
11092;SDS011;5600;50.864;6.102;2023-09-30T00:15:31;57.90;;;6.27;;
11092;SDS011;5600;50.864;6.102;2023-09-30T00:18:31;69.40;;;6.90;;
11092;SDS011;5600;50.864;6.102;2023-09-30T00:21:32;58.40;;;6.53;;
11092;SDS011;5600;50.864;6.102;2023-09-30T00:24:33;51.10;;;6.63;;
11092;SDS011;5600;50.864;6.102;2023-09-30T00:27:34;65.73;;;7.03;;
11092;SDS011;5600;50.864;6.102;2023-09-30T00:30:35;43.20;;;6.40;;
11092;SDS011;5600;50.864;6.102;2023-09-30T00:33:37;46.83;;;6.20;;
11092;SDS011;5600;50.864;6.102;2023-09-30T00:36:37;50.30;;;7.00;;
11092;SDS011;5600;50.864;6.102;2023-09-30T00:39:38;32.47;;;5.77;;
11092;SDS011;5600;50.864;6.102;2023-09-30T00:42:39;64.30;;;8.10;;
11092;SDS011;5600;50.864;6.102;2023-09-30T00:45:42;50.70;;;7.10;;
11092;SDS011;5600;50.864;6.102;2023-09-30T00:48:44;69.40;;;7.67;;
11092;SDS011;5600;50.864;6.102;2023-09-30T00:51:46;43.03;;;6.40;;
11092;SDS011;5600;50.864;6.102;2023-09-30T00:54:47;46.70;;;6.70;;
11092;SDS011;5600;50.864;6.102;2023-09-30T00:57:49;45.37;;;6.60;;
11092;SDS011;5600;50.864;6.102;2023-09-30T01:00:50;46.87;;;6.47;;
11092;SDS011;5600;50.864;6.102;2023-09-30T01:03:51;38.73;;;6.40;;
11092;SDS011;5600;50.864;6.102;2023-09-30T01:06:52;31.63;;;6.30;;
11092;SDS011;5600;50.864;6.102;2023-09-30T01:09:53;43.17;;;7.30;;
11092;SDS011;5600;50.864;6.102;2023-09-30T01:12:54;43.13;;;7.40;;
11092;SDS011;5600;50.864;6.102;2023-09-30T01:15:55;50.57;;;7.93;;
11092;SDS011;5600;50.864;6.102;2023-09-30T01:18:55;53.50;;;7.47;;
11092;SDS011;5600;50.864;6.102;2023-09-30T01:21:57;45.50;;;7.47;;
11092;SDS011;5600;50.864;6.102;2023-09-30T01:25:02;54.30;;;8.30;;
11092;SDS011;5600;50.864;6.102;2023-09-30T01:28:07;51.40;;;6.93;;
11092;SDS011;5600;50.864;6.102;2023-09-30T01:31:08;37.13;;;6.63;;
11092;SDS011;5600;50.864;6.102;2023-09-30T01:34:09;51.80;;;7.47;;
11092;SDS011;5600;50.864;6.102;2023-09-30T01:37:11;48.10;;;7.77;;
11092;SDS011;5600;50.864;6.102;2023-09-30T01:40:11;44.20;;;7.53;;
11092;SDS011;5600;50.864;6.102;2023-09-30T01:43:12;47.17;;;7.17;;
11092;SDS011;5600;50.864;6.102;2023-09-30T01:46:14;47.70;;;7.27;;
11092;SDS011;5600;50.864;6.102;2023-09-30T01:49:14;53.37;;;7.90;;
11092;SDS011;5600;50.864;6.102;2023-09-30T01:52:15;34.37;;;7.13;;
11092;SDS011;5600;50.864;6.102;2023-09-30T01:55:16;38.77;;;7.23;;
11092;SDS011;5600;50.864;6.102;2023-09-30T01:58:17;41.60;;;8.10;;
11092;SDS011;5600;50.864;6.102;2023-09-30T02:01:18;40.57;;;7.90;;
11092;SDS011;5600;50.864;6.102;2023-09-30T02:04:18;40.47;;;6.83;;
11092;SDS011;5600;50.864;6.102;2023-09-30T02:07:19;47.97;;;7.73;;
11092;SDS011;5600;50.864;6.102;2023-09-30T02:10:20;39.50;;;7.73;;
11092;SDS011;5600;50.864;6.102;2023-09-30T02:13:20;49.13;;;8.40;;
11092;SDS011;5600;50.864;6.102;2023-09-30T02:16:21;25.77;;;6.90;;
11092;SDS011;5600;50.864;6.102;2023-09-30T02:19:23;50.03;;;7.90;;
11092;SDS011;5600;50.864;6.102;2023-09-30T02:22:23;43.13;;;8.70;;
11092;SDS011;5600;50.864;6.102;2023-09-30T02:25:28;40.47;;;8.47;;
11092;SDS011;5600;50.864;6.102;2023-09-30T02:28:30;39.73;;;8.30;;
11092;SDS011;5600;50.864;6.102;2023-09-30T02:31:34;46.10;;;8.43;;
11092;SDS011;5600;50.864;6.102;2023-09-30T02:34:35;42.03;;;7.53;;
11092;SDS011;5600;50.864;6.102;2023-09-30T02:37:36;39.10;;;7.13;;
11092;SDS011;5600;50.864;6.102;2023-09-30T02:40:37;44.50;;;7.43;;
11092;SDS011;5600;50.864;6.102;2023-09-30T02:43:40;47.03;;;8.43;;
11092;SDS011;5600;50.864;6.102;2023-09-30T02:46:41;39.67;;;8.90;;
11092;SDS011;5600;50.864;6.102;2023-09-30T02:49:41;41.53;;;7.10;;
11092;SDS011;5600;50.864;6.102;2023-09-30T02:52:42;41.20;;;7.80;;
11092;SDS011;5600;50.864;6.102;2023-09-30T02:55:43;40.33;;;7.87;;
11092;SDS011;5600;50.864;6.102;2023-09-30T02:58:45;53.17;;;9.00;;
11092;SDS011;5600;50.864;6.102;2023-09-30T03:01:47;38.67;;;8.67;;
11092;SDS011;5600;50.864;6.102;2023-09-30T03:04:48;48.63;;;9.37;;
11092;SDS011;5600;50.864;6.102;2023-09-30T03:07:51;32.90;;;7.63;;
11092;SDS011;5600;50.864;6.102;2023-09-30T03:10:52;36.70;;;9.60;;
11092;SDS011;5600;50.864;6.102;2023-09-30T03:13:53;46.73;;;8.80;;
11092;SDS011;5600;50.864;6.102;2023-09-30T03:16:55;40.33;;;9.63;;
11092;SDS011;5600;50.864;6.102;2023-09-30T03:19:56;45.83;;;8.90;;
11092;SDS011;5600;50.864;6.102;2023-09-30T03:22:57;51.27;;;9.03;;
11092;SDS011;5600;50.864;6.102;2023-09-30T03:25:59;39.13;;;8.67;;
11092;SDS011;5600;50.864;6.102;2023-09-30T03:29:00;55.57;;;9.03;;
11092;SDS011;5600;50.864;6.102;2023-09-30T03:32:01;37.33;;;8.00;;
11092;SDS011;5600;50.864;6.102;2023-09-30T03:35:02;47.87;;;9.50;;
11092;SDS011;5600;50.864;6.102;2023-09-30T03:38:07;66.40;;;9.80;;
11092;SDS011;5600;50.864;6.102;2023-09-30T03:41:10;37.97;;;9.03;;
11092;SDS011;5600;50.864;6.102;2023-09-30T03:44:13;65.47;;;9.87;;
11092;SDS011;5600;50.864;6.102;2023-09-30T03:47:14;35.73;;;7.63;;
11092;SDS011;5600;50.864;6.102;2023-09-30T03:50:18;59.63;;;10.17;;
11092;SDS011;5600;50.864;6.102;2023-09-30T03:53:19;51.30;;;8.83;;
11092;SDS011;5600;50.864;6.102;2023-09-30T03:56:20;76.80;;;9.50;;
11092;SDS011;5600;50.864;6.102;2023-09-30T03:59:22;40.23;;;8.83;;
11092;SDS011;5600;50.864;6.102;2023-09-30T04:02:23;44.40;;;8.70;;
11092;SDS011;5600;50.864;6.102;2023-09-30T04:05:24;51.73;;;9.17;;
11092;SDS011;5600;50.864;6.102;2023-09-30T04:08:29;50.33;;;9.50;;
11092;SDS011;5600;50.864;6.102;2023-09-30T04:11:29;67.90;;;10.53;;
11092;SDS011;5600;50.864;6.102;2023-09-30T04:14:30;40.20;;;8.90;;
11092;SDS011;5600;50.864;6.102;2023-09-30T04:17:31;48.83;;;8.63;;
11092;SDS011;5600;50.864;6.102;2023-09-30T04:20:32;36.10;;;8.40;;
11092;SDS011;5600;50.864;6.102;2023-09-30T04:23:33;33.10;;;8.90;;
11092;SDS011;5600;50.864;6.102;2023-09-30T04:26:36;77.10;;;10.80;;
11092;SDS011;5600;50.864;6.102;2023-09-30T04:29:37;41.53;;;7.80;;
11092;SDS011;5600;50.864;6.102;2023-09-30T04:32:39;40.70;;;7.37;;
11092;SDS011;5600;50.864;6.102;2023-09-30T04:35:40;43.90;;;9.47;;
11092;SDS011;5600;50.864;6.102;2023-09-30T04:38:40;59.47;;;10.57;;
11092;SDS011;5600;50.864;6.102;2023-09-30T04:41:41;61.07;;;9.87;;
11092;SDS011;5600;50.864;6.102;2023-09-30T04:44:42;53.50;;;11.10;;
11092;SDS011;5600;50.864;6.102;2023-09-30T04:47:43;50.83;;;10.77;;
11092;SDS011;5600;50.864;6.102;2023-09-30T04:50:44;42.63;;;10.00;;
11092;SDS011;5600;50.864;6.102;2023-09-30T04:53:46;36.00;;;10.70;;
11092;SDS011;5600;50.864;6.102;2023-09-30T04:56:46;79.97;;;12.40;;
11092;SDS011;5600;50.864;6.102;2023-09-30T04:59:47;34.50;;;10.03;;
11092;SDS011;5600;50.864;6.102;2023-09-30T05:02:48;48.53;;;10.80;;
11092;SDS011;5600;50.864;6.102;2023-09-30T05:05:48;48.10;;;10.17;;
11092;SDS011;5600;50.864;6.102;2023-09-30T05:08:49;92.10;;;13.93;;
11092;SDS011;5600;50.864;6.102;2023-09-30T05:11:50;57.57;;;11.20;;
11092;SDS011;5600;50.864;6.102;2023-09-30T05:14:51;46.87;;;11.17;;
11092;SDS011;5600;50.864;6.102;2023-09-30T05:17:52;49.27;;;10.30;;
11092;SDS011;5600;50.864;6.102;2023-09-30T05:20:53;51.70;;;11.50;;
11092;SDS011;5600;50.864;6.102;2023-09-30T05:23:53;52.63;;;11.47;;
11092;SDS011;5600;50.864;6.102;2023-09-30T05:26:54;53.90;;;11.10;;
11092;SDS011;5600;50.864;6.102;2023-09-30T05:29:55;48.77;;;10.33;;
11092;SDS011;5600;50.864;6.102;2023-09-30T05:32:56;46.93;;;11.10;;
11092;SDS011;5600;50.864;6.102;2023-09-30T05:35:56;45.00;;;11.20;;
11092;SDS011;5600;50.864;6.102;2023-09-30T05:38:57;62.00;;;12.43;;
11092;SDS011;5600;50.864;6.102;2023-09-30T05:41:58;49.53;;;10.07;;
11092;SDS011;5600;50.864;6.102;2023-09-30T05:44:59;46.53;;;10.97;;
11092;SDS011;5600;50.864;6.102;2023-09-30T05:48:01;52.37;;;10.70;;
11092;SDS011;5600;50.864;6.102;2023-09-30T05:51:05;57.07;;;11.37;;
11092;SDS011;5600;50.864;6.102;2023-09-30T05:54:07;42.70;;;10.73;;
11092;SDS011;5600;50.864;6.102;2023-09-30T05:57:12;65.20;;;11.43;;
11092;SDS011;5600;50.864;6.102;2023-09-30T06:00:14;59.17;;;11.70;;
11092;SDS011;5600;50.864;6.102;2023-09-30T06:03:20;67.47;;;12.00;;
11092;SDS011;5600;50.864;6.102;2023-09-30T06:06:23;56.33;;;10.33;;
11092;SDS011;5600;50.864;6.102;2023-09-30T06:09:26;66.40;;;11.83;;
11092;SDS011;5600;50.864;6.102;2023-09-30T06:12:27;52.70;;;11.27;;
11092;SDS011;5600;50.864;6.102;2023-09-30T06:15:27;66.30;;;11.57;;
11092;SDS011;5600;50.864;6.102;2023-09-30T06:18:28;49.73;;;11.03;;
11092;SDS011;5600;50.864;6.102;2023-09-30T06:21:29;71.30;;;12.60;;
11092;SDS011;5600;50.864;6.102;2023-09-30T06:24:30;59.33;;;12.30;;
11092;SDS011;5600;50.864;6.102;2023-09-30T06:27:30;57.03;;;11.13;;
11092;SDS011;5600;50.864;6.102;2023-09-30T06:30:31;63.93;;;11.20;;
11092;SDS011;5600;50.864;6.102;2023-09-30T06:33:37;37.40;;;11.80;;
11092;SDS011;5600;50.864;6.102;2023-09-30T06:36:42;52.73;;;11.50;;
11092;SDS011;5600;50.864;6.102;2023-09-30T06:39:42;52.90;;;11.10;;
11092;SDS011;5600;50.864;6.102;2023-09-30T06:42:43;47.33;;;10.80;;
11092;SDS011;5600;50.864;6.102;2023-09-30T06:45:44;53.90;;;11.67;;
11092;SDS011;5600;50.864;6.102;2023-09-30T06:48:46;76.93;;;10.87;;
11092;SDS011;5600;50.864;6.102;2023-09-30T06:51:47;46.23;;;10.50;;
11092;SDS011;5600;50.864;6.102;2023-09-30T06:54:48;70.83;;;12.47;;
11092;SDS011;5600;50.864;6.102;2023-09-30T06:57:48;60.97;;;11.10;;
11092;SDS011;5600;50.864;6.102;2023-09-30T07:00:49;64.63;;;12.07;;
11092;SDS011;5600;50.864;6.102;2023-09-30T07:03:51;55.90;;;12.07;;
11092;SDS011;5600;50.864;6.102;2023-09-30T07:06:55;65.33;;;11.37;;
11092;SDS011;5600;50.864;6.102;2023-09-30T07:09:55;66.83;;;11.83;;
11092;SDS011;5600;50.864;6.102;2023-09-30T07:12:56;59.37;;;11.70;;
11092;SDS011;5600;50.864;6.102;2023-09-30T07:15:57;61.80;;;13.27;;
11092;SDS011;5600;50.864;6.102;2023-09-30T07:18:58;65.77;;;11.37;;
11092;SDS011;5600;50.864;6.102;2023-09-30T07:21:58;72.27;;;11.60;;
11092;SDS011;5600;50.864;6.102;2023-09-30T07:24:59;49.23;;;10.97;;
11092;SDS011;5600;50.864;6.102;2023-09-30T07:28:01;58.30;;;11.27;;
11092;SDS011;5600;50.864;6.102;2023-09-30T07:31:02;58.00;;;10.67;;
11092;SDS011;5600;50.864;6.102;2023-09-30T07:34:03;67.93;;;13.30;;
11092;SDS011;5600;50.864;6.102;2023-09-30T07:37:04;69.03;;;12.90;;
11092;SDS011;5600;50.864;6.102;2023-09-30T07:40:05;64.33;;;11.77;;
11092;SDS011;5600;50.864;6.102;2023-09-30T07:43:06;53.17;;;11.47;;
11092;SDS011;5600;50.864;6.102;2023-09-30T07:46:07;74.63;;;12.30;;
11092;SDS011;5600;50.864;6.102;2023-09-30T07:49:08;59.97;;;10.87;;
11092;SDS011;5600;50.864;6.102;2023-09-30T07:52:10;62.70;;;9.35;;
11092;SDS011;5600;50.864;6.102;2023-09-30T07:55:11;105.95;;;11.35;;
11092;SDS011;5600;50.864;6.102;2023-09-30T07:58:12;51.50;;;7.35;;
11092;SDS011;5600;50.864;6.102;2023-09-30T08:01:12;47.35;;;6.78;;
11092;SDS011;5600;50.864;6.102;2023-09-30T08:04:13;50.10;;;6.53;;
11092;SDS011;5600;50.864;6.102;2023-09-30T08:07:14;47.00;;;5.80;;
11092;SDS011;5600;50.864;6.102;2023-09-30T08:10:14;63.90;;;6.90;;
11092;SDS011;5600;50.864;6.102;2023-09-30T08:13:17;40.75;;;5.18;;
11092;SDS011;5600;50.864;6.102;2023-09-30T08:16:17;43.40;;;5.10;;
11092;SDS011;5600;50.864;6.102;2023-09-30T08:19:19;60.28;;;6.10;;
11092;SDS011;5600;50.864;6.102;2023-09-30T08:22:21;54.95;;;5.70;;
11092;SDS011;5600;50.864;6.102;2023-09-30T08:25:26;64.53;;;6.25;;
11092;SDS011;5600;50.864;6.102;2023-09-30T08:28:27;68.95;;;6.30;;
11092;SDS011;5600;50.864;6.102;2023-09-30T08:31:27;76.82;;;6.95;;
11092;SDS011;5600;50.864;6.102;2023-09-30T08:34:28;89.05;;;7.82;;
11092;SDS011;5600;50.864;6.102;2023-09-30T08:37:29;71.18;;;6.57;;
11092;SDS011;5600;50.864;6.102;2023-09-30T08:40:31;89.60;;;7.68;;
11092;SDS011;5600;50.864;6.102;2023-09-30T08:43:32;68.32;;;6.20;;
11092;SDS011;5600;50.864;6.102;2023-09-30T08:46:38;48.20;;;5.00;;
11092;SDS011;5600;50.864;6.102;2023-09-30T08:49:41;86.07;;;7.45;;
11092;SDS011;5600;50.864;6.102;2023-09-30T08:52:44;36.38;;;4.40;;
11092;SDS011;5600;50.864;6.102;2023-09-30T08:55:45;54.55;;;5.80;;
11092;SDS011;5600;50.864;6.102;2023-09-30T08:58:47;107.78;;;8.60;;
11092;SDS011;5600;50.864;6.102;2023-09-30T09:01:48;59.47;;;6.13;;
11092;SDS011;5600;50.864;6.102;2023-09-30T09:04:49;48.42;;;4.82;;
11092;SDS011;5600;50.864;6.102;2023-09-30T09:07:50;57.78;;;5.60;;
11092;SDS011;5600;50.864;6.102;2023-09-30T09:10:57;50.95;;;5.40;;
11092;SDS011;5600;50.864;6.102;2023-09-30T09:13:59;53.85;;;5.28;;
11092;SDS011;5600;50.864;6.102;2023-09-30T09:17:01;63.92;;;5.63;;
11092;SDS011;5600;50.864;6.102;2023-09-30T09:20:01;60.03;;;5.63;;
11092;SDS011;5600;50.864;6.102;2023-09-30T09:23:05;91.57;;;7.00;;
11092;SDS011;5600;50.864;6.102;2023-09-30T09:26:07;67.53;;;6.03;;
11092;SDS011;5600;50.864;6.102;2023-09-30T09:29:09;75.15;;;6.00;;
11092;SDS011;5600;50.864;6.102;2023-09-30T09:32:14;47.00;;;4.90;;
11092;SDS011;5600;50.864;6.102;2023-09-30T09:35:19;81.80;;;6.65;;
11092;SDS011;5600;50.864;6.102;2023-09-30T09:38:21;61.95;;;5.80;;
11092;SDS011;5600;50.864;6.102;2023-09-30T09:41:22;45.33;;;4.68;;
11092;SDS011;5600;50.864;6.102;2023-09-30T09:44:24;74.57;;;6.15;;
11092;SDS011;5600;50.864;6.102;2023-09-30T09:47:28;93.32;;;6.88;;
11092;SDS011;5600;50.864;6.102;2023-09-30T09:50:31;64.65;;;5.55;;
11092;SDS011;5600;50.864;6.102;2023-09-30T09:53:35;66.65;;;5.45;;
11092;SDS011;5600;50.864;6.102;2023-09-30T09:56:39;69.65;;;5.90;;
11092;SDS011;5600;50.864;6.102;2023-09-30T09:59:42;74.70;;;6.10;;
11092;SDS011;5600;50.864;6.102;2023-09-30T10:02:45;72.03;;;6.03;;
11092;SDS011;5600;50.864;6.102;2023-09-30T10:05:47;64.90;;;5.68;;
11092;SDS011;5600;50.864;6.102;2023-09-30T10:08:49;148.98;;;10.32;;
11092;SDS011;5600;50.864;6.102;2023-09-30T10:11:57;70.60;;;6.05;;
11092;SDS011;5600;50.864;6.102;2023-09-30T10:14:59;69.78;;;6.07;;
11092;SDS011;5600;50.864;6.102;2023-09-30T10:18:09;65.78;;;5.93;;
11092;SDS011;5600;50.864;6.102;2023-09-30T10:21:11;64.78;;;6.13;;
11092;SDS011;5600;50.864;6.102;2023-09-30T10:30:25;134.43;;;9.98;;
11092;SDS011;5600;50.864;6.102;2023-09-30T10:33:26;57.70;;;5.75;;
11092;SDS011;5600;50.864;6.102;2023-09-30T10:36:27;71.72;;;6.40;;
11092;SDS011;5600;50.864;6.102;2023-09-30T10:42:56;57.25;;;6.40;;
11092;SDS011;5600;50.864;6.102;2023-09-30T10:45:58;72.15;;;6.82;;
11092;SDS011;5600;50.864;6.102;2023-09-30T10:49:14;93.80;;;7.68;;
11092;SDS011;5600;50.864;6.102;2023-09-30T10:52:23;54.15;;;5.93;;
11092;SDS011;5600;50.864;6.102;2023-09-30T10:55:26;61.35;;;6.28;;
11092;SDS011;5600;50.864;6.102;2023-09-30T10:58:48;68.13;;;6.88;;
11092;SDS011;5600;50.864;6.102;2023-09-30T11:01:49;62.20;;;6.57;;
11092;SDS011;5600;50.864;6.102;2023-09-30T11:04:51;74.43;;;6.68;;
11092;SDS011;5600;50.864;6.102;2023-09-30T11:07:52;65.35;;;6.05;;
11092;SDS011;5600;50.864;6.102;2023-09-30T11:10:55;62.63;;;6.13;;
11092;SDS011;5600;50.864;6.102;2023-09-30T11:13:56;58.08;;;6.85;;
11092;SDS011;5600;50.864;6.102;2023-09-30T11:19:59;89.85;;;7.85;;
11092;SDS011;5600;50.864;6.102;2023-09-30T11:23:00;93.47;;;7.85;;
11092;SDS011;5600;50.864;6.102;2023-09-30T11:26:01;75.47;;;7.03;;
11092;SDS011;5600;50.864;6.102;2023-09-30T11:32:11;68.15;;;6.53;;
11092;SDS011;5600;50.864;6.102;2023-09-30T11:35:30;83.35;;;7.40;;
11092;SDS011;5600;50.864;6.102;2023-09-30T11:38:32;57.20;;;5.82;;
11092;SDS011;5600;50.864;6.102;2023-09-30T11:41:35;70.32;;;6.68;;
11092;SDS011;5600;50.864;6.102;2023-09-30T11:44:44;95.47;;;8.02;;
11092;SDS011;5600;50.864;6.102;2023-09-30T11:47:50;77.95;;;7.07;;
11092;SDS011;5600;50.864;6.102;2023-09-30T11:50:51;135.05;;;9.95;;
11092;SDS011;5600;50.864;6.102;2023-09-30T11:53:53;68.85;;;6.38;;
11092;SDS011;5600;50.864;6.102;2023-09-30T11:56:55;68.72;;;6.63;;
11092;SDS011;5600;50.864;6.102;2023-09-30T11:59:55;55.65;;;6.20;;
11092;SDS011;5600;50.864;6.102;2023-09-30T12:02:56;62.10;;;6.20;;
11092;SDS011;5600;50.864;6.102;2023-09-30T12:05:58;71.18;;;7.25;;
11092;SDS011;5600;50.864;6.102;2023-09-30T12:09:00;95.13;;;7.72;;
11092;SDS011;5600;50.864;6.102;2023-09-30T12:12:03;58.22;;;6.30;;
11092;SDS011;5600;50.864;6.102;2023-09-30T12:15:04;53.80;;;6.25;;
11092;SDS011;5600;50.864;6.102;2023-09-30T12:18:05;83.70;;;7.45;;
11092;SDS011;5600;50.864;6.102;2023-09-30T12:21:12;51.88;;;5.85;;
11092;SDS011;5600;50.864;6.102;2023-09-30T12:24:15;57.92;;;6.13;;
11092;SDS011;5600;50.864;6.102;2023-09-30T12:27:17;69.93;;;6.82;;
11092;SDS011;5600;50.864;6.102;2023-09-30T12:30:17;55.47;;;6.07;;
11092;SDS011;5600;50.864;6.102;2023-09-30T12:33:20;72.03;;;6.60;;
11092;SDS011;5600;50.864;6.102;2023-09-30T12:36:21;62.95;;;6.75;;
11092;SDS011;5600;50.864;6.102;2023-09-30T12:39:22;85.75;;;7.57;;
11092;SDS011;5600;50.864;6.102;2023-09-30T12:42:24;77.43;;;7.22;;
11092;SDS011;5600;50.864;6.102;2023-09-30T12:45:24;64.85;;;6.97;;
11092;SDS011;5600;50.864;6.102;2023-09-30T12:48:25;53.40;;;6.03;;
11092;SDS011;5600;50.864;6.102;2023-09-30T12:51:26;45.67;;;5.93;;
11092;SDS011;5600;50.864;6.102;2023-09-30T12:54:27;60.85;;;6.18;;
11092;SDS011;5600;50.864;6.102;2023-09-30T12:57:27;86.60;;;7.78;;
11092;SDS011;5600;50.864;6.102;2023-09-30T13:00:28;62.97;;;6.57;;
11092;SDS011;5600;50.864;6.102;2023-09-30T13:03:31;67.88;;;7.15;;
11092;SDS011;5600;50.864;6.102;2023-09-30T13:06:32;71.93;;;7.25;;
11092;SDS011;5600;50.864;6.102;2023-09-30T13:09:35;41.78;;;5.25;;
11092;SDS011;5600;50.864;6.102;2023-09-30T13:12:37;76.88;;;7.07;;
11092;SDS011;5600;50.864;6.102;2023-09-30T13:15:38;81.00;;;8.20;;
11092;SDS011;5600;50.864;6.102;2023-09-30T13:18:39;74.90;;;8.88;;
11092;SDS011;5600;50.864;6.102;2023-09-30T13:21:39;71.38;;;7.57;;
11092;SDS011;5600;50.864;6.102;2023-09-30T13:24:41;66.65;;;7.28;;
11092;SDS011;5600;50.864;6.102;2023-09-30T13:27:42;79.22;;;7.43;;
11092;SDS011;5600;50.864;6.102;2023-09-30T13:30:43;86.97;;;7.93;;
11092;SDS011;5600;50.864;6.102;2023-09-30T13:33:46;63.38;;;6.88;;
11092;SDS011;5600;50.864;6.102;2023-09-30T13:36:47;99.05;;;8.65;;
11092;SDS011;5600;50.864;6.102;2023-09-30T13:39:49;58.13;;;6.53;;
11092;SDS011;5600;50.864;6.102;2023-09-30T13:42:50;72.28;;;6.97;;
11092;SDS011;5600;50.864;6.102;2023-09-30T13:45:51;72.22;;;7.13;;
11092;SDS011;5600;50.864;6.102;2023-09-30T13:48:51;122.97;;;9.65;;
11092;SDS011;5600;50.864;6.102;2023-09-30T13:51:52;73.70;;;7.13;;
11092;SDS011;5600;50.864;6.102;2023-09-30T13:54:53;66.93;;;6.78;;
11092;SDS011;5600;50.864;6.102;2023-09-30T13:57:55;80.07;;;7.32;;
11092;SDS011;5600;50.864;6.102;2023-09-30T14:00:56;61.92;;;6.57;;
11092;SDS011;5600;50.864;6.102;2023-09-30T14:03:57;65.07;;;6.53;;
11092;SDS011;5600;50.864;6.102;2023-09-30T14:06:59;77.00;;;6.93;;
11092;SDS011;5600;50.864;6.102;2023-09-30T14:10:03;60.30;;;6.47;;
11092;SDS011;5600;50.864;6.102;2023-09-30T14:13:04;48.70;;;5.63;;
11092;SDS011;5600;50.864;6.102;2023-09-30T14:16:05;49.85;;;5.80;;
11092;SDS011;5600;50.864;6.102;2023-09-30T14:19:06;45.28;;;5.57;;
11092;SDS011;5600;50.864;6.102;2023-09-30T14:22:08;63.40;;;6.28;;
11092;SDS011;5600;50.864;6.102;2023-09-30T14:25:09;52.63;;;5.93;;
11092;SDS011;5600;50.864;6.102;2023-09-30T14:28:10;67.95;;;6.47;;
11092;SDS011;5600;50.864;6.102;2023-09-30T14:31:11;61.35;;;5.80;;
11092;SDS011;5600;50.864;6.102;2023-09-30T14:34:11;56.77;;;5.83;;
11092;SDS011;5600;50.864;6.102;2023-09-30T14:37:12;91.00;;;7.75;;
11092;SDS011;5600;50.864;6.102;2023-09-30T14:40:13;68.88;;;6.85;;
11092;SDS011;5600;50.864;6.102;2023-09-30T14:43:14;62.33;;;5.70;;
11092;SDS011;5600;50.864;6.102;2023-09-30T14:46:15;57.97;;;5.57;;
11092;SDS011;5600;50.864;6.102;2023-09-30T14:49:15;48.58;;;5.65;;
11092;SDS011;5600;50.864;6.102;2023-09-30T14:52:16;63.63;;;6.20;;
11092;SDS011;5600;50.864;6.102;2023-09-30T14:55:17;64.82;;;5.97;;
11092;SDS011;5600;50.864;6.102;2023-09-30T14:58:17;79.70;;;7.22;;
11092;SDS011;5600;50.864;6.102;2023-09-30T15:01:18;65.97;;;6.10;;
11092;SDS011;5600;50.864;6.102;2023-09-30T15:04:20;63.67;;;6.32;;
11092;SDS011;5600;50.864;6.102;2023-09-30T15:07:21;54.55;;;5.88;;
11092;SDS011;5600;50.864;6.102;2023-09-30T15:10:22;57.85;;;5.57;;
11092;SDS011;5600;50.864;6.102;2023-09-30T15:13:23;60.92;;;6.32;;
11092;SDS011;5600;50.864;6.102;2023-09-30T15:16:24;67.63;;;6.38;;
11092;SDS011;5600;50.864;6.102;2023-09-30T15:19:26;67.70;;;6.72;;
11092;SDS011;5600;50.864;6.102;2023-09-30T15:22:26;47.35;;;5.38;;
11092;SDS011;5600;50.864;6.102;2023-09-30T15:25:27;70.30;;;6.32;;
11092;SDS011;5600;50.864;6.102;2023-09-30T15:28:29;55.22;;;5.82;;
11092;SDS011;5600;50.864;6.102;2023-09-30T15:31:30;61.45;;;6.38;;
11092;SDS011;5600;50.864;6.102;2023-09-30T15:34:31;63.85;;;6.55;;
11092;SDS011;5600;50.864;6.102;2023-09-30T15:37:32;51.60;;;6.55;;
11092;SDS011;5600;50.864;6.102;2023-09-30T15:40:40;41.30;;;5.25;;
11092;SDS011;5600;50.864;6.102;2023-09-30T15:43:57;52.47;;;5.88;;
11092;SDS011;5600;50.864;6.102;2023-09-30T15:46:59;71.75;;;7.40;;
11092;SDS011;5600;50.864;6.102;2023-09-30T15:50:00;70.40;;;6.60;;
11092;SDS011;5600;50.864;6.102;2023-09-30T15:53:01;65.32;;;6.47;;
11092;SDS011;5600;50.864;6.102;2023-09-30T15:56:04;61.47;;;6.47;;
11092;SDS011;5600;50.864;6.102;2023-09-30T15:59:06;49.72;;;5.47;;
11092;SDS011;5600;50.864;6.102;2023-09-30T16:02:06;56.65;;;6.07;;
11092;SDS011;5600;50.864;6.102;2023-09-30T16:05:07;40.72;;;5.40;;
11092;SDS011;5600;50.864;6.102;2023-09-30T16:08:09;42.78;;;5.40;;
11092;SDS011;5600;50.864;6.102;2023-09-30T16:11:11;63.50;;;6.32;;
11092;SDS011;5600;50.864;6.102;2023-09-30T16:14:12;46.53;;;5.45;;
11092;SDS011;5600;50.864;6.102;2023-09-30T16:17:13;64.85;;;7.03;;
11092;SDS011;5600;50.864;6.102;2023-09-30T16:20:14;66.32;;;6.57;;
11092;SDS011;5600;50.864;6.102;2023-09-30T16:23:15;69.15;;;6.72;;
11092;SDS011;5600;50.864;6.102;2023-09-30T16:26:16;63.08;;;6.68;;
11092;SDS011;5600;50.864;6.102;2023-09-30T16:29:17;60.22;;;6.65;;
11092;SDS011;5600;50.864;6.102;2023-09-30T16:32:17;47.40;;;5.55;;
11092;SDS011;5600;50.864;6.102;2023-09-30T16:35:18;99.90;;;8.70;;
11092;SDS011;5600;50.864;6.102;2023-09-30T16:38:20;50.72;;;5.47;;
11092;SDS011;5600;50.864;6.102;2023-09-30T16:41:22;56.00;;;6.00;;
11092;SDS011;5600;50.864;6.102;2023-09-30T16:44:23;63.40;;;6.68;;
11092;SDS011;5600;50.864;6.102;2023-09-30T16:47:25;71.95;;;7.07;;
11092;SDS011;5600;50.864;6.102;2023-09-30T16:50:26;54.47;;;6.00;;
11092;SDS011;5600;50.864;6.102;2023-09-30T16:53:27;53.88;;;5.93;;
11092;SDS011;5600;50.864;6.102;2023-09-30T16:56:28;63.65;;;6.18;;
11092;SDS011;5600;50.864;6.102;2023-09-30T16:59:29;62.85;;;6.03;;
11092;SDS011;5600;50.864;6.102;2023-09-30T17:02:31;50.90;;;5.35;;
11092;SDS011;5600;50.864;6.102;2023-09-30T17:05:35;54.72;;;5.85;;
11092;SDS011;5600;50.864;6.102;2023-09-30T17:08:36;59.47;;;5.85;;
11092;SDS011;5600;50.864;6.102;2023-09-30T17:11:37;68.60;;;6.13;;
11092;SDS011;5600;50.864;6.102;2023-09-30T17:14:38;64.50;;;6.05;;
11092;SDS011;5600;50.864;6.102;2023-09-30T17:17:40;84.95;;;7.15;;
11092;SDS011;5600;50.864;6.102;2023-09-30T17:20:44;67.50;;;6.22;;
11092;SDS011;5600;50.864;6.102;2023-09-30T17:23:45;85.85;;;7.00;;
11092;SDS011;5600;50.864;6.102;2023-09-30T17:26:46;81.50;;;7.32;;
11092;SDS011;5600;50.864;6.102;2023-09-30T17:29:47;71.55;;;6.82;;
11092;SDS011;5600;50.864;6.102;2023-09-30T17:32:49;91.00;;;8.27;;
11092;SDS011;5600;50.864;6.102;2023-09-30T17:35:50;81.15;;;7.68;;
11092;SDS011;5600;50.864;6.102;2023-09-30T17:38:51;99.68;;;8.23;;
11092;SDS011;5600;50.864;6.102;2023-09-30T17:41:52;66.83;;;6.47;;
11092;SDS011;5600;50.864;6.102;2023-09-30T17:44:53;86.35;;;7.55;;
11092;SDS011;5600;50.864;6.102;2023-09-30T17:47:55;60.23;;;5.93;;
11092;SDS011;5600;50.864;6.102;2023-09-30T17:50:56;60.35;;;6.05;;
11092;SDS011;5600;50.864;6.102;2023-09-30T17:53:57;57.13;;;5.88;;
11092;SDS011;5600;50.864;6.102;2023-09-30T17:56:58;86.00;;;8.23;;
11092;SDS011;5600;50.864;6.102;2023-09-30T17:59:59;78.30;;;7.37;;
11092;SDS011;5600;50.864;6.102;2023-09-30T18:02:59;62.73;;;6.53;;
11092;SDS011;5600;50.864;6.102;2023-09-30T18:06:04;89.60;;;7.83;;
11092;SDS011;5600;50.864;6.102;2023-09-30T18:09:12;56.00;;;6.17;;
11092;SDS011;5600;50.864;6.102;2023-09-30T18:12:13;57.43;;;6.57;;
11092;SDS011;5600;50.864;6.102;2023-09-30T18:15:14;51.63;;;6.10;;
11092;SDS011;5600;50.864;6.102;2023-09-30T18:18:17;68.10;;;6.93;;
11092;SDS011;5600;50.864;6.102;2023-09-30T18:21:18;63.97;;;7.07;;
11092;SDS011;5600;50.864;6.102;2023-09-30T18:24:19;62.90;;;7.37;;
11092;SDS011;5600;50.864;6.102;2023-09-30T18:27:20;83.00;;;8.50;;